04:35
Airports
History
Links
Donate
Help keep this website running!
PayPal
Bitcoin
This page is community maintained. The information is intended for PC simulator navigation or reference.
Always use approved charts for navigation.
CET9
JEAN MARIE RIVER
JEAN MARIE RIVER (CET9)
Jean Marie River, Northwest Territories, Canada
4
Lat/Lng:61° 31' 0" N / 120° 36' 60" W
61.516667 / -120.616666
Elevation:470'ft / 143mMSL
ID / ICAO:CET9
Runways:1
Longest:10-28
Gravel 756m / 2,482ft
Nearby Weather04:00 GMT 2017-09-22
Nearby weather at CYFS, FORT SIMPSON located 26.4 nautical miles from CET9
Altimeter: 30.07
Visibility: 15.0 statute miles
Wind: 2 knots (from VRB°)
Temp: 9°c / 48°f
Humidity: 70.8%

METAR: CYFS 220400Z VRB02KT 15SM FEW085 09/04 A3007 RMK AC2 SLP195

(Powered by phpweather)
Airport Radio Frequencies
CTAF: 123.2
Nearby VORs <50NM
Nearby NDBs
Runway 10 / 28
Dimensions:756.4 x 18.3m 2482' x 60'ft
Surface:Gravel
Edge Lights:Low intensity
Runway 10 [A]Runway 28 [B]
Heading:124°TH 304°TH
Lat:
Lng:
61° 31' 7"N
120° 37' 21"W
61° 30' 53"N
120° 36' 38.99"W
User Notes and Comments
61° 31' 0" N / 120° 36' 60" W
Distance To
Airport ID:
Nearby Airports
(U) FORT SIMPSON 26.4 NM
CYFS ( WX ) NW 309°
(C) Trout Lake 77.4 NM
CEU9 SSW 195°
(C) Nahanni Butte 98.0 NM
CBD6 WSW 249°
4 Fort Providence 100.5 NM
CYJP E 97°
4 Mount Flett 115.4 NM
CBN6 WSW 239°
4 Fort Liard 130.5 NM
CYJF SW 227°
4 Pointed Mountain 135.0 NM
CBJ6 SW 232°
VFR Chart
Flight Planning at SkyVector.com